createdAt,value
2023-05-23T00:00:27.435Z,3.20
2023-05-23T00:02:55.885Z,5.30
2023-05-23T00:05:24.418Z,3.75
2023-05-23T00:07:52.839Z,4.65
2023-05-23T00:10:21.437Z,4.88
2023-05-23T00:12:49.844Z,5.40
2023-05-23T00:15:19.833Z,4.65
2023-05-23T00:17:48.464Z,6.03
2023-05-23T00:20:16.935Z,3.17
2023-05-23T00:22:48.303Z,7.15
2023-05-23T00:25:16.670Z,6.55
2023-05-23T00:27:45.013Z,6.20
2023-05-23T00:30:13.732Z,5.57
2023-05-23T00:32:43.615Z,5.65
2023-05-23T00:35:12.116Z,5.63
2023-05-23T00:37:40.528Z,4.95
2023-05-23T00:40:10.143Z,5.13
2023-05-23T00:42:38.563Z,4.28
2023-05-23T00:45:07.722Z,9.88
2023-05-23T00:47:36.211Z,3.35
2023-05-23T00:50:06.162Z,4.13
2023-05-23T00:52:34.527Z,3.75
2023-05-23T00:55:03.053Z,5.85
2023-05-23T00:57:31.431Z,3.88
2023-05-23T00:59:59.804Z,4.13
2023-05-23T01:02:28.900Z,9.80
2023-05-23T01:04:57.475Z,5.63
2023-05-23T01:07:27.415Z,7.35
2023-05-23T01:09:55.761Z,4.07
2023-05-23T01:12:29.540Z,3.50
2023-05-23T01:15:01.474Z,4.80
2023-05-23T01:17:33.756Z,5.22
2023-05-23T01:20:05.610Z,4.25
2023-05-23T01:22:41.544Z,5.57
2023-05-23T01:25:13.527Z,4.38
2023-05-23T01:27:48.255Z,5.35
2023-05-23T01:30:18.746Z,6.03
2023-05-23T01:32:48.488Z,5.63
2023-05-23T01:35:21.272Z,4.75
2023-05-23T01:37:49.578Z,6.15
2023-05-23T01:40:17.910Z,6.35
2023-05-23T01:42:47.739Z,3.00
2023-05-23T01:45:16.928Z,6.50
2023-05-23T01:47:45.678Z,4.68
2023-05-23T01:50:14.309Z,4.40
2023-05-23T01:52:42.987Z,6.35
2023-05-23T01:55:12.049Z,5.35
2023-05-23T01:57:40.874Z,4.20
2023-05-23T02:00:12.275Z,4.22
2023-05-23T02:02:40.890Z,6.50
2023-05-23T02:05:09.502Z,3.13
2023-05-23T02:07:37.821Z,7.40
2023-05-23T02:10:06.992Z,4.25
2023-05-23T02:12:35.348Z,3.88
2023-05-23T02:15:03.782Z,4.28
2023-05-23T02:17:33.479Z,3.13
2023-05-23T02:20:01.951Z,6.05
2023-05-23T02:22:30.272Z,4.38
2023-05-23T02:24:58.662Z,4.85
2023-05-23T02:27:27.311Z,4.97
2023-05-23T02:29:55.608Z,4.85
2023-05-23T02:32:23.976Z,4.70
2023-05-23T02:34:55.098Z,8.63
2023-05-23T02:37:25.321Z,4.78
2023-05-23T02:39:53.620Z,7.85
2023-05-23T02:42:21.950Z,4.82
2023-05-23T02:44:50.262Z,6.00
2023-05-23T02:47:18.642Z,9.40
2023-05-23T02:49:46.943Z,6.88
2023-05-23T02:52:17.003Z,3.20
2023-05-23T02:54:45.723Z,3.60
2023-05-23T02:57:14.086Z,4.50
2023-05-23T02:59:42.430Z,6.18
2023-05-23T03:02:10.897Z,4.43
2023-05-23T03:04:40.025Z,6.50
2023-05-23T03:07:17.222Z,7.82
2023-05-23T03:09:54.135Z,6.03
2023-05-23T03:12:22.421Z,4.05
2023-05-23T03:14:50.800Z,6.07
2023-05-23T03:17:19.131Z,5.32
2023-05-23T03:19:47.604Z,4.97
2023-05-23T03:22:15.947Z,6.85
2023-05-23T03:24:44.363Z,6.45
2023-05-23T03:27:14.172Z,8.60
2023-05-23T03:29:42.466Z,5.20
2023-05-23T03:32:10.856Z,5.93
2023-05-23T03:34:39.174Z,4.82
2023-05-23T03:37:07.542Z,4.38
2023-05-23T03:39:37.353Z,3.80
2023-05-23T03:42:08.039Z,5.32
2023-05-23T03:44:37.688Z,5.63
2023-05-23T03:47:07.204Z,3.17
2023-05-23T03:49:35.732Z,6.75
2023-05-23T03:52:04.250Z,6.13
2023-05-23T03:54:32.614Z,4.28
2023-05-23T03:57:01.523Z,5.80
2023-05-23T03:59:29.882Z,6.63
2023-05-23T04:02:01.056Z,5.10
2023-05-23T04:04:29.539Z,5.85
2023-05-23T04:06:58.145Z,7.57
2023-05-23T04:09:26.540Z,7.68
2023-05-23T04:11:54.837Z,4.22
2023-05-23T04:14:23.169Z,11.27
2023-05-23T04:16:51.480Z,4.50
2023-05-23T04:19:23.505Z,8.25
2023-05-23T04:21:51.927Z,10.65
2023-05-23T04:24:20.281Z,5.82
2023-05-23T04:26:48.622Z,4.20
2023-05-23T04:29:16.987Z,4.25
2023-05-23T04:31:46.158Z,3.97
2023-05-23T04:34:14.985Z,6.93
2023-05-23T04:36:45.315Z,6.38
2023-05-23T04:39:14.089Z,4.25
2023-05-23T04:41:42.473Z,5.30
2023-05-23T04:44:11.135Z,6.32
2023-05-23T04:46:42.312Z,5.32
2023-05-23T04:49:10.906Z,5.40
2023-05-23T04:51:39.439Z,5.50
2023-05-23T04:54:09.139Z,4.35
2023-05-23T04:56:37.654Z,6.75
2023-05-23T04:59:06.020Z,7.93
2023-05-23T05:01:34.611Z,5.95
2023-05-23T05:04:03.209Z,8.75
2023-05-23T05:06:34.502Z,5.78
2023-05-23T05:09:02.874Z,8.18
2023-05-23T05:11:32.571Z,5.22
2023-05-23T05:14:01.059Z,6.05
2023-05-23T05:16:29.406Z,10.38
2023-05-23T05:18:58.029Z,8.25
2023-05-23T05:21:26.409Z,8.02
2023-05-23T05:23:54.725Z,9.38
2023-05-23T05:26:23.410Z,6.68
2023-05-23T05:28:53.212Z,10.90
2023-05-23T05:31:22.292Z,6.68
2023-05-23T05:33:50.897Z,6.65
2023-05-23T05:36:19.215Z,6.15
2023-05-23T05:38:47.556Z,5.07
2023-05-23T05:41:16.080Z,5.82
2023-05-23T05:43:44.468Z,8.10
2023-05-23T05:46:14.242Z,9.63
2023-05-23T05:48:42.662Z,9.40
2023-05-23T05:51:10.948Z,7.28
2023-05-23T05:53:39.299Z,5.78
2023-05-23T05:56:09.256Z,8.85
2023-05-23T05:58:37.765Z,8.18
2023-05-23T06:01:06.232Z,6.40
2023-05-23T06:03:36.170Z,9.48
2023-05-23T06:06:04.676Z,7.70
2023-05-23T06:08:33.022Z,13.15
2023-05-23T06:11:01.351Z,9.13
2023-05-23T06:13:29.708Z,6.30
2023-05-23T06:15:58.497Z,8.88
2023-05-23T06:18:26.881Z,7.78
2023-05-23T06:20:56.593Z,8.02
2023-05-23T06:23:24.871Z,8.98
2023-05-23T06:25:53.215Z,7.30
2023-05-23T06:28:21.541Z,7.88
2023-05-23T06:30:49.832Z,7.03
2023-05-23T06:33:18.265Z,14.25
2023-05-23T06:35:46.647Z,10.10
2023-05-23T06:38:17.802Z,14.15
2023-05-23T06:40:46.391Z,10.10
2023-05-23T06:43:14.791Z,8.45
2023-05-23T06:45:43.117Z,9.05
2023-05-23T06:48:11.679Z,10.45
2023-05-23T06:50:40.334Z,5.85
2023-05-23T06:53:09.078Z,12.10
2023-05-23T06:55:38.793Z,13.00
2023-05-23T06:58:07.216Z,8.13
2023-05-23T07:00:35.550Z,9.88
2023-05-23T07:03:04.798Z,7.47
2023-05-23T07:05:34.515Z,9.30
2023-05-23T07:08:02.912Z,10.90
2023-05-23T07:10:31.307Z,9.43
2023-05-23T07:13:01.053Z,10.50
2023-05-23T07:15:29.398Z,6.97
2023-05-23T07:17:57.761Z,12.63
2023-05-23T07:20:26.212Z,9.40
2023-05-23T07:22:54.584Z,9.00
2023-05-23T07:25:23.485Z,11.27
2023-05-23T07:27:54.561Z,11.60
2023-05-23T07:30:24.340Z,7.70
2023-05-23T07:32:53.673Z,9.75
2023-05-23T07:35:26.089Z,10.15
2023-05-23T07:37:54.667Z,11.85
2023-05-23T07:40:24.309Z,8.63
2023-05-23T07:42:53.233Z,8.43
2023-05-23T07:45:22.116Z,11.95
2023-05-23T07:47:51.853Z,13.75
2023-05-23T07:50:20.366Z,13.02
2023-05-23T07:52:48.755Z,10.80
2023-05-23T07:55:17.174Z,8.90
2023-05-23T07:57:45.522Z,15.77
2023-05-23T08:00:14.903Z,11.10
2023-05-23T08:02:43.345Z,10.73
2023-05-23T08:05:13.418Z,8.00
2023-05-23T08:07:41.815Z,9.82
2023-05-23T08:10:10.850Z,8.82
2023-05-23T08:12:39.346Z,10.77
2023-05-23T08:15:08.220Z,9.45
2023-05-23T08:17:36.625Z,11.77
2023-05-23T08:20:05.914Z,14.82
2023-05-23T08:22:36.135Z,7.57
2023-05-23T08:25:04.621Z,12.77
2023-05-23T08:27:33.914Z,12.20
2023-05-23T08:30:03.092Z,11.13
2023-05-23T08:32:31.459Z,15.73
2023-05-23T08:34:59.973Z,10.43
2023-05-23T08:37:28.398Z,16.67
2023-05-23T08:39:58.186Z,8.98
2023-05-23T08:42:26.588Z,23.35
2023-05-23T08:44:55.135Z,23.15
2023-05-23T08:47:23.545Z,13.80
2023-05-23T08:49:52.535Z,11.95
2023-05-23T08:52:23.584Z,10.68
2023-05-23T08:54:52.690Z,12.38
2023-05-23T08:57:22.460Z,8.90
2023-05-23T08:59:50.996Z,8.10
2023-05-23T09:02:19.799Z,12.45
2023-05-23T09:04:48.229Z,10.07
2023-05-23T09:07:17.939Z,12.75
2023-05-23T09:09:49.729Z,10.25
2023-05-23T09:12:18.113Z,9.85
2023-05-23T09:14:48.214Z,9.20
2023-05-23T09:17:18.151Z,13.68
2023-05-23T09:19:47.269Z,8.50
2023-05-23T09:22:15.657Z,9.45
2023-05-23T09:24:44.431Z,11.30
2023-05-23T09:27:12.789Z,11.23
2023-05-23T09:29:41.482Z,13.27
2023-05-23T09:32:14.769Z,14.48
2023-05-23T09:34:44.012Z,9.45
2023-05-23T09:37:19.331Z,15.98
2023-05-23T09:39:48.649Z,9.52
2023-05-23T09:42:20.496Z,8.75
2023-05-23T09:44:48.888Z,14.30
2023-05-23T09:47:19.327Z,10.15
2023-05-23T09:49:48.082Z,9.85
2023-05-23T09:52:16.414Z,9.90
2023-05-23T09:54:46.647Z,16.95
2023-05-23T09:57:16.537Z,10.50
2023-05-23T09:59:54.572Z,11.05
2023-05-23T10:02:38.490Z,13.32
2023-05-23T10:05:08.893Z,13.25
2023-05-23T10:07:37.939Z,12.98
2023-05-23T10:10:08.393Z,11.20
2023-05-23T10:12:46.047Z,11.55
2023-05-23T10:15:16.915Z,10.48
2023-05-23T10:18:03.081Z,9.80
2023-05-23T10:20:33.892Z,8.18
2023-05-23T10:23:02.618Z,11.60
2023-05-23T10:25:31.252Z,9.07
2023-05-23T10:28:03.288Z,11.93
2023-05-23T10:30:32.922Z,17.25
2023-05-23T10:33:01.940Z,12.57
2023-05-23T10:35:39.636Z,7.32
2023-05-23T10:38:13.881Z,9.20
2023-05-23T10:40:48.440Z,10.32
2023-05-23T10:43:19.983Z,10.43
2023-05-23T10:45:50.669Z,12.68
2023-05-23T10:48:22.199Z,15.68
2023-05-23T10:51:05.375Z,11.68
2023-05-23T10:53:34.025Z,15.18
2023-05-23T10:56:02.396Z,15.77
2023-05-23T10:58:32.044Z,12.40
2023-05-23T11:01:02.345Z,10.68
2023-05-23T11:03:35.475Z,10.07
2023-05-23T11:06:06.002Z,12.38
2023-05-23T11:08:48.594Z,7.93
2023-05-23T11:11:17.670Z,6.75
2023-05-23T11:14:01.074Z,7.05
2023-05-23T11:16:29.875Z,8.68
2023-05-23T11:19:17.144Z,7.00
2023-05-23T11:21:47.576Z,8.65
2023-05-23T11:24:16.371Z,7.00
2023-05-23T11:26:54.071Z,8.73
2023-05-23T11:29:22.802Z,9.13
2023-05-23T11:31:51.317Z,6.57
2023-05-23T11:34:20.011Z,6.43
2023-05-23T11:36:49.784Z,7.80
2023-05-23T11:39:19.399Z,5.72
2023-05-23T11:41:52.138Z,5.88
2023-05-23T11:44:20.671Z,8.35
2023-05-23T11:47:00.930Z,8.68
2023-05-23T11:49:30.074Z,10.00
2023-05-23T11:51:59.958Z,8.65
2023-05-23T11:54:28.660Z,8.07
2023-05-23T11:56:57.367Z,9.80
2023-05-23T11:59:26.865Z,4.82
2023-05-23T12:01:55.440Z,6.45
2023-05-23T12:04:24.195Z,8.80
2023-05-23T12:06:53.433Z,6.63
2023-05-23T12:09:23.501Z,5.32
2023-05-23T12:11:51.914Z,4.60
2023-05-23T12:14:20.336Z,8.50
2023-05-23T12:16:48.942Z,7.20
2023-05-23T12:19:18.627Z,6.03
2023-05-23T12:21:47.606Z,7.32
2023-05-23T12:24:20.053Z,11.70
2023-05-23T12:26:50.522Z,7.15
2023-05-23T12:29:20.554Z,8.93
2023-05-23T12:31:52.822Z,5.97
2023-05-23T12:34:24.311Z,6.18
2023-05-23T12:37:06.297Z,4.72
2023-05-23T12:39:45.819Z,6.70
2023-05-23T12:42:15.578Z,5.55
2023-05-23T12:44:45.959Z,5.03
2023-05-23T12:47:15.126Z,7.10
2023-05-23T12:49:44.847Z,7.47
2023-05-23T12:52:13.287Z,12.98
2023-05-23T12:54:41.681Z,5.25
2023-05-23T12:57:10.113Z,5.72
2023-05-23T12:59:39.830Z,9.50
2023-05-23T13:02:08.378Z,10.48
2023-05-23T13:04:36.853Z,7.22
2023-05-23T13:07:05.180Z,9.30
2023-05-23T13:09:33.552Z,8.95
2023-05-23T13:12:01.941Z,7.60
2023-05-23T13:14:30.515Z,6.65
2023-05-23T13:17:00.659Z,5.40
2023-05-23T13:19:29.440Z,7.50
2023-05-23T13:21:57.853Z,9.50
2023-05-23T13:24:26.248Z,8.30
2023-05-23T13:26:54.609Z,4.60
2023-05-23T13:29:23.080Z,5.38
2023-05-23T13:31:51.659Z,4.93
2023-05-23T13:34:21.874Z,9.63
2023-05-23T13:36:50.281Z,7.45
2023-05-23T13:39:19.782Z,5.90
2023-05-23T13:41:48.431Z,7.43
2023-05-23T13:44:16.877Z,7.82
2023-05-23T13:46:45.447Z,3.38
2023-05-23T13:49:13.881Z,7.50
2023-05-23T13:51:44.364Z,4.28
2023-05-23T13:54:13.553Z,5.60
2023-05-23T13:56:41.902Z,7.57
2023-05-23T13:59:10.245Z,4.32
2023-05-23T14:01:38.668Z,4.72
2023-05-23T14:04:07.413Z,5.47
2023-05-23T14:06:36.700Z,4.85
2023-05-23T14:09:06.754Z,6.97
2023-05-23T14:11:35.346Z,5.15
2023-05-23T14:14:03.736Z,8.40
2023-05-23T14:16:32.294Z,6.03
2023-05-23T14:19:00.819Z,8.05
2023-05-23T14:21:29.334Z,5.22
2023-05-23T14:23:57.703Z,5.18
2023-05-23T14:26:27.534Z,5.28
2023-05-23T14:28:55.990Z,4.63
2023-05-23T14:31:24.624Z,7.72
2023-05-23T14:33:53.050Z,3.97
2023-05-23T14:36:21.434Z,4.70
2023-05-23T14:38:51.178Z,4.25
2023-05-23T14:41:19.570Z,8.15
2023-05-23T14:43:49.341Z,7.35
2023-05-23T14:46:19.273Z,5.60
2023-05-23T14:48:47.722Z,11.35
2023-05-23T14:51:30.402Z,6.40
2023-05-23T14:54:04.451Z,3.20
2023-05-23T14:56:32.825Z,8.23
2023-05-23T14:59:02.586Z,4.70
2023-05-23T15:01:31.206Z,3.85
2023-05-23T15:03:59.644Z,7.72
2023-05-23T15:06:28.137Z,4.95
2023-05-23T15:08:56.815Z,6.22
2023-05-23T15:11:26.666Z,5.32
2023-05-23T15:13:55.914Z,3.70
2023-05-23T15:16:25.728Z,6.43
2023-05-23T15:18:54.194Z,9.38
2023-05-23T15:21:22.544Z,3.72
2023-05-23T15:23:50.924Z,5.40
2023-05-23T15:26:19.443Z,7.90
2023-05-23T15:28:47.993Z,4.43
2023-05-23T15:31:16.421Z,4.43
2023-05-23T15:33:47.404Z,7.18
2023-05-23T15:36:15.785Z,6.35
2023-05-23T15:38:44.728Z,6.22
2023-05-23T15:41:13.122Z,4.95
2023-05-23T15:43:41.476Z,4.05
2023-05-23T15:46:09.919Z,6.03
2023-05-23T15:48:38.289Z,5.07
2023-05-23T15:51:08.109Z,4.78
2023-05-23T15:53:47.833Z,3.80
2023-05-23T15:56:24.771Z,2.80
2023-05-23T15:58:53.127Z,4.78
2023-05-23T16:01:21.523Z,4.80
2023-05-23T16:03:49.982Z,3.83
2023-05-23T16:06:19.817Z,4.45
2023-05-23T16:08:48.190Z,3.63
2023-05-23T16:11:16.526Z,2.97
2023-05-23T16:13:44.930Z,4.05
2023-05-23T16:16:13.276Z,3.80
2023-05-23T16:18:41.804Z,4.13
2023-05-23T16:21:10.177Z,2.42
2023-05-23T16:23:39.900Z,2.58
2023-05-23T16:26:08.293Z,5.10
2023-05-23T16:28:36.652Z,3.30
2023-05-23T16:31:05.066Z,3.25
2023-05-23T16:33:33.409Z,3.47
2023-05-23T16:36:01.812Z,3.08
2023-05-23T16:38:30.208Z,3.03
2023-05-23T16:40:59.919Z,3.80
2023-05-23T16:43:28.466Z,2.55
2023-05-23T16:45:56.978Z,2.55
2023-05-23T16:48:25.395Z,3.75
2023-05-23T16:50:54.890Z,4.40
2023-05-23T16:53:23.262Z,2.22
2023-05-23T16:55:51.902Z,2.28
2023-05-23T16:58:21.652Z,2.38
2023-05-23T17:00:50.286Z,2.58
2023-05-23T17:03:18.949Z,2.45
2023-05-23T17:05:47.371Z,2.20
2023-05-23T17:08:15.701Z,1.98
2023-05-23T17:10:45.254Z,2.88
2023-05-23T17:13:13.576Z,1.23
2023-05-23T17:15:43.628Z,4.70
2023-05-23T17:18:12.225Z,1.33
2023-05-23T17:20:42.293Z,2.92
2023-05-23T17:23:11.094Z,0.88
2023-05-23T17:25:42.579Z,1.58
2023-05-23T17:28:11.985Z,1.58
2023-05-23T17:30:40.331Z,2.35
2023-05-23T17:33:10.925Z,1.38
2023-05-23T17:35:39.330Z,1.67
2023-05-23T17:38:07.809Z,2.58
2023-05-23T17:40:36.244Z,2.25
2023-05-23T17:43:04.624Z,2.25
2023-05-23T17:45:33.056Z,2.03
2023-05-23T17:48:03.463Z,2.22
2023-05-23T17:50:33.556Z,3.50
2023-05-23T17:53:04.162Z,2.20
2023-05-23T17:55:32.843Z,1.58
2023-05-23T17:58:01.257Z,2.30
2023-05-23T18:00:29.774Z,1.25
2023-05-23T18:02:58.193Z,0.85
2023-05-23T18:05:26.753Z,1.77
2023-05-23T18:07:56.792Z,3.30
2023-05-23T18:10:25.599Z,1.73
2023-05-23T18:12:54.000Z,1.67
2023-05-23T18:15:22.438Z,3.03
2023-05-23T18:17:53.016Z,1.25
2023-05-23T18:20:21.509Z,0.93
2023-05-23T18:22:53.991Z,1.55
2023-05-23T18:25:27.506Z,1.35
2023-05-23T18:27:56.270Z,0.90
2023-05-23T18:30:24.636Z,1.40
2023-05-23T18:32:53.162Z,1.33
2023-05-23T18:35:22.144Z,1.67
2023-05-23T18:37:50.935Z,1.58
2023-05-23T18:40:21.596Z,1.20
2023-05-23T18:42:51.386Z,2.30
2023-05-23T18:45:19.759Z,1.08
2023-05-23T18:47:48.181Z,5.50
2023-05-23T18:50:16.642Z,0.88
2023-05-23T18:52:44.987Z,1.10
2023-05-23T18:55:13.359Z,2.47
2023-05-23T18:57:41.742Z,1.58
2023-05-23T19:00:12.228Z,2.25
2023-05-23T19:02:44.188Z,1.75
2023-05-23T19:05:13.024Z,1.02
2023-05-23T19:07:41.417Z,0.50
2023-05-23T19:10:10.203Z,3.22
2023-05-23T19:12:39.473Z,4.35
2023-05-23T19:15:09.268Z,1.05
2023-05-23T19:17:39.220Z,2.53
2023-05-23T19:20:08.202Z,1.80
2023-05-23T19:22:50.320Z,1.08
2023-05-23T19:25:19.704Z,1.52
2023-05-23T19:27:48.095Z,3.58
2023-05-23T19:30:16.754Z,1.23
2023-05-23T19:32:46.836Z,0.95
2023-05-23T19:35:17.006Z,2.15
2023-05-23T19:37:45.880Z,1.10
2023-05-23T19:40:14.619Z,1.17
2023-05-23T19:42:42.985Z,0.82
2023-05-23T19:45:11.872Z,1.30
2023-05-23T19:47:40.318Z,1.25
2023-05-23T19:50:11.947Z,0.93
2023-05-23T19:52:41.094Z,1.33
2023-05-23T19:55:10.079Z,1.83
2023-05-23T19:57:38.459Z,1.08
2023-05-23T20:00:09.460Z,2.65
2023-05-23T20:02:38.548Z,1.85
2023-05-23T20:05:08.189Z,1.30
2023-05-23T20:07:37.967Z,0.80
2023-05-23T20:10:06.797Z,0.88
2023-05-23T20:12:35.327Z,1.92
2023-05-23T20:15:04.159Z,0.93
2023-05-23T20:17:32.532Z,1.00
2023-05-23T20:20:01.063Z,1.98
2023-05-23T20:22:30.886Z,4.63
2023-05-23T20:25:00.661Z,0.98
2023-05-23T20:27:29.053Z,3.20
2023-05-23T20:29:57.410Z,1.20
2023-05-23T20:32:25.860Z,1.35
2023-05-23T20:34:54.575Z,1.27
2023-05-23T20:37:22.907Z,1.27
2023-05-23T20:39:52.335Z,2.92
2023-05-23T20:42:22.295Z,2.08
2023-05-23T20:44:50.662Z,1.58
2023-05-23T20:47:19.194Z,2.40
2023-05-23T20:49:49.091Z,3.17
2023-05-23T20:52:17.677Z,0.82
2023-05-23T20:54:48.263Z,3.35
2023-05-23T20:57:16.685Z,1.80
2023-05-23T20:59:47.150Z,2.03
2023-05-23T21:02:15.680Z,0.77
2023-05-23T21:04:44.114Z,1.75
2023-05-23T21:07:13.398Z,1.90
2023-05-23T21:09:41.788Z,1.45
2023-05-23T21:12:10.201Z,1.92
2023-05-23T21:14:38.554Z,2.05
2023-05-23T21:17:08.396Z,1.40
2023-05-23T21:19:36.955Z,1.05
2023-05-23T21:22:05.451Z,2.10
2023-05-23T21:24:33.819Z,1.77
2023-05-23T21:27:02.950Z,1.35
2023-05-23T21:29:31.353Z,1.42
2023-05-23T21:31:59.679Z,2.83
2023-05-23T21:34:31.459Z,1.65
2023-05-23T21:36:59.813Z,1.25
2023-05-23T21:39:39.285Z,0.85
2023-05-23T21:42:15.709Z,0.93
2023-05-23T21:44:44.048Z,1.45
2023-05-23T21:47:12.372Z,2.20
2023-05-23T21:49:42.218Z,0.63
2023-05-23T21:52:10.633Z,2.03
2023-05-23T21:54:38.945Z,0.93
2023-05-23T21:57:07.364Z,2.88
2023-05-23T21:59:35.735Z,0.70
2023-05-23T22:02:04.112Z,1.27
2023-05-23T22:04:32.825Z,3.25
2023-05-23T22:07:02.521Z,2.35
2023-05-23T22:09:30.901Z,2.33
2023-05-23T22:11:59.272Z,3.28
2023-05-23T22:14:27.612Z,0.82
2023-05-23T22:16:56.181Z,0.98
2023-05-23T22:19:26.269Z,0.75
2023-05-23T22:21:54.753Z,1.35
2023-05-23T22:24:25.244Z,1.40
2023-05-23T22:26:53.648Z,1.23
2023-05-23T22:29:22.175Z,1.42
2023-05-23T22:31:50.518Z,3.65
2023-05-23T22:34:18.872Z,2.22
2023-05-23T22:36:47.876Z,2.13
2023-05-23T22:39:16.219Z,1.60
2023-05-23T22:41:46.020Z,1.00
2023-05-23T22:44:14.377Z,1.52
2023-05-23T22:46:43.403Z,1.15
2023-05-23T22:49:11.881Z,2.50
2023-05-23T22:51:40.677Z,2.22
2023-05-23T22:54:08.996Z,2.17
2023-05-23T22:56:37.332Z,2.15
2023-05-23T22:59:07.093Z,1.33
2023-05-23T23:01:35.540Z,0.60
2023-05-23T23:04:04.017Z,0.88
2023-05-23T23:06:34.017Z,11.35
2023-05-23T23:09:02.394Z,2.20
2023-05-23T23:11:30.785Z,0.95
2023-05-23T23:13:59.965Z,1.08
2023-05-23T23:16:30.765Z,1.15
2023-05-23T23:18:59.174Z,1.70
2023-05-23T23:21:27.565Z,0.98
2023-05-23T23:23:56.584Z,1.48
2023-05-23T23:26:24.945Z,2.35
2023-05-23T23:28:53.274Z,4.20
2023-05-23T23:31:21.698Z,1.27
2023-05-23T23:33:51.454Z,1.02
2023-05-23T23:36:19.761Z,0.52
2023-05-23T23:38:48.115Z,1.25
2023-05-23T23:41:16.432Z,0.57
2023-05-23T23:43:44.751Z,0.35
2023-05-23T23:46:13.092Z,1.73
2023-05-23T23:48:41.404Z,1.40
2023-05-23T23:51:12.897Z,0.85
2023-05-23T23:53:41.445Z,0.63
2023-05-23T23:56:09.773Z,0.90
2023-05-23T23:58:38.136Z,0.77
